Time;durP1;ratioP1;P1;durP2;ratioP2;P2;SDS_P1;SDS_P2;PMS_P1;PMS_P2;Temp;Humidity;BMP_temperature;BMP_pressure;BME280_temperature;BME280_humidity;BME280_pressure;Samples;Min_cycle;Max_cycle;Signal;HPM_P1;HPM_P2
2022/05/26 00:02:14;;;;;;;5.97;3.28;;;12.40;99.90;;;;;;5247794;28;20362;-76
2022/05/26 00:04:45;;;;;;;3.47;2.65;;;11.80;99.90;;;;;;5247870;28;20469;-84
2022/05/26 00:07:16;;;;;;;3.47;2.70;;;12.40;99.90;;;;;;5247916;28;20028;-75
2022/05/26 00:09:47;;;;;;;4.03;2.80;;;12.60;99.90;;;;;;5249800;28;20441;-75
2022/05/26 00:12:19;;;;;;;5.07;2.65;;;12.50;99.90;;;;;;5251601;28;20099;-74
2022/05/26 00:14:50;;;;;;;6.30;3.28;;;12.20;99.90;;;;;;5251625;28;20375;-74
2022/05/26 00:17:21;;;;;;;8.00;3.38;;;12.00;99.90;;;;;;5250451;28;20020;-74
2022/05/26 00:19:52;;;;;;;3.65;3.03;;;12.20;99.90;;;;;;5251556;28;20044;-74
2022/05/26 00:22:23;;;;;;;6.70;3.17;;;12.50;99.90;;;;;;5251600;28;20459;-83
2022/05/26 00:24:54;;;;;;;4.50;3.22;;;12.50;99.90;;;;;;5251658;28;20107;-74
2022/05/26 00:27:25;;;;;;;5.65;3.10;;;12.30;99.90;;;;;;5251688;28;20099;-75
2022/05/26 00:29:56;;;;;;;3.88;2.92;;;12.40;99.90;;;;;;5251251;28;20052;-74
2022/05/26 00:32:27;;;;;;;4.35;3.00;;;12.10;99.90;;;;;;5251456;28;20100;-74
2022/05/26 00:34:57;;;;;;;3.65;3.25;;;11.90;99.90;;;;;;5251275;28;20399;-82
2022/05/26 00:37:29;;;;;;;3.97;2.90;;;12.30;99.90;;;;;;5251569;28;20361;-74
2022/05/26 00:40:01;;;;;;;4.47;2.83;;;12.50;99.90;;;;;;5250029;28;20460;-75
2022/05/26 00:42:32;;;;;;;6.13;3.17;;;12.50;99.90;;;;;;5251116;28;20019;-74
2022/05/26 00:45:05;;;;;;;3.47;2.72;;;12.00;99.90;;;;;;5251134;28;20103;-75
2022/05/26 00:47:41;;;;;;;5.65;3.50;;;12.20;99.90;;;;;;5251070;28;20499;-84
2022/05/26 00:50:23;;;;;;;3.30;2.80;;;12.30;99.90;;;;;;5251085;28;20090;-75
2022/05/26 00:53:01;;;;;;;7.15;2.60;;;12.50;99.90;;;;;;5251091;28;20369;-75
2022/05/26 00:55:40;;;;;;;4.63;2.95;;;12.60;99.90;;;;;;5250910;28;20097;-74
2022/05/26 00:58:19;;;;;;;5.25;3.22;;;11.90;99.90;;;;;;5250843;28;20059;-74
2022/05/26 01:00:50;;;;;;;7.57;3.20;;;12.10;99.90;;;;;;5250976;28;20169;-76
2022/05/26 01:03:50;;;;;;;4.80;3.25;;;11.80;99.90;;;;;;5251157;28;20409;-83
2022/05/26 01:06:36;;;;;;;8.40;3.50;;;12.20;99.90;;;;;;5250501;28;20074;-75
2022/05/26 01:09:07;;;;;;;5.85;3.13;;;12.00;99.90;;;;;;5250772;28;20083;-75
2022/05/26 01:11:40;;;;;;;3.42;2.90;;;12.10;99.90;;;;;;5250794;28;20025;-83
2022/05/26 01:14:18;;;;;;;4.80;3.75;;;12.10;99.90;;;;;;5250366;28;20024;-74
2022/05/26 01:17:10;;;;;;;8.35;3.80;;;11.90;99.90;;;;;;5250744;28;20078;-83
2022/05/26 01:19:55;;;;;;;4.80;3.60;;;12.20;99.90;;;;;;5249855;28;20396;-74
2022/05/26 01:23:06;;;;;;;4.93;3.55;;;12.40;99.90;;;;;;5250320;28;20029;-83
2022/05/26 01:25:55;;;;;;;5.53;3.13;;;12.00;99.90;;;;;;5249415;28;20023;-74
2022/05/26 01:29:04;;;;;;;4.28;3.28;;;11.90;99.90;;;;;;5250222;28;20032;-74
2022/05/26 01:32:08;;;;;;;3.20;2.80;;;12.00;99.90;;;;;;5250349;28;20079;-74
2022/05/26 01:34:57;;;;;;;3.75;3.10;;;12.40;99.90;;;;;;5250401;28;20372;-82
2022/05/26 01:37:35;;;;;;;9.05;4.22;;;12.40;99.90;;;;;;5250180;28;20036;-75
2022/05/26 01:40:31;;;;;;;6.35;4.25;;;12.40;99.90;;;;;;5250059;28;20028;-75
2022/05/26 01:43:20;;;;;;;7.55;4.03;;;12.50;99.90;;;;;;5248744;28;20023;-82
2022/05/26 01:45:59;;;;;;;4.63;3.42;;;12.20;99.90;;;;;;5250074;28;20029;-77
2022/05/26 01:48:42;;;;;;;5.68;3.80;;;12.50;99.90;;;;;;5250024;28;20028;-74
2022/05/26 01:51:16;;;;;;;5.95;3.60;;;12.60;99.90;;;;;;5250091;28;20063;-75
2022/05/26 01:53:47;;;;;;;6.50;4.50;;;12.50;99.90;;;;;;5249951;28;20052;-74
2022/05/26 01:57:01;;;;;;;4.30;3.70;;;12.60;99.90;;;;;;5249769;28;20068;-74
2022/05/26 01:59:45;;;;;;;4.43;3.13;;;12.40;99.90;;;;;;5249726;28;20350;-74
2022/05/26 02:02:22;;;;;;;7.15;4.10;;;12.20;99.90;;;;;;5249811;28;20033;-75
2022/05/26 02:05:00;;;;;;;6.93;3.90;;;12.10;99.90;;;;;;5249736;28;20385;-83
2022/05/26 02:07:37;;;;;;;5.70;3.70;;;11.80;99.90;;;;;;5249740;28;20025;-82
2022/05/26 02:10:40;;;;;;;7.18;3.55;;;12.10;99.90;;;;;;5249669;28;20081;-74
2022/05/26 02:13:18;;;;;;;5.07;3.90;;;12.30;99.90;;;;;;5249044;28;20082;-74
2022/05/26 02:15:57;;;;;;;5.72;3.38;;;12.20;99.90;;;;;;5249454;28;20039;-74
2022/05/26 02:18:33;;;;;;;4.82;3.67;;;11.80;99.90;;;;;;5249619;28;20025;-74
2022/05/26 02:21:14;;;;;;;6.95;4.00;;;12.10;99.90;;;;;;5249899;28;20063;-75
2022/05/26 02:23:58;;;;;;;3.88;3.47;;;12.10;99.90;;;;;;5249151;28;20035;-74
2022/05/26 02:26:31;;;;;;;5.22;3.40;;;12.00;99.90;;;;;;5249066;28;20029;-83
2022/05/26 02:31:53;;;;;;;7.22;4.50;;;12.00;99.90;;;;;;5248370;28;20052;-74
2022/05/26 02:34:25;;;;;;;6.35;4.18;;;11.70;99.90;;;;;;5248859;28;20468;-74
2022/05/26 02:36:57;;;;;;;6.22;4.30;;;11.90;99.90;;;;;;5248973;28;20064;-75
2022/05/26 02:39:30;;;;;;;8.45;3.75;;;11.90;99.90;;;;;;5248977;28;20394;-83
2022/05/26 02:42:01;;;;;;;4.88;3.70;;;11.90;99.90;;;;;;5248724;28;20070;-74
2022/05/26 02:44:33;;;;;;;6.07;4.00;;;12.00;99.90;;;;;;5247545;28;20380;-83
2022/05/26 02:47:35;;;;;;;5.57;4.13;;;12.10;99.90;;;;;;5248993;28;20070;-74
2022/05/26 02:50:28;;;;;;;9.10;4.13;;;12.30;99.90;;;;;;5247459;28;20024;-74
2022/05/26 02:53:37;;;;;;;8.35;3.78;;;12.30;99.90;;;;;;5248681;28;20499;-75
2022/05/26 02:56:20;;;;;;;8.32;4.13;;;12.20;99.90;;;;;;5237464;28;20041;-74
2022/05/26 02:59:02;;;;;;;6.28;4.40;;;12.10;99.90;;;;;;5247264;28;20430;-82
2022/05/26 03:01:54;;;;;;;11.48;6.50;;;12.10;99.90;;;;;;5248690;28;20517;-74
2022/05/26 03:04:27;;;;;;;11.02;5.82;;;12.10;99.90;;;;;;5248399;28;20070;-82
2022/05/26 03:07:02;;;;;;;13.38;6.68;;;12.20;99.90;;;;;;5248837;28;20344;-83
2022/05/26 03:09:35;;;;;;;11.60;6.85;;;12.20;99.90;;;;;;5249236;28;20020;-83
2022/05/26 03:12:26;;;;;;;12.30;6.05;;;12.50;99.90;;;;;;5248791;28;20480;-79
2022/05/26 03:14:59;;;;;;;10.13;5.60;;;12.30;99.90;;;;;;5248453;28;20484;-75
2022/05/26 03:17:29;;;;;;;9.77;6.60;;;12.10;99.90;;;;;;5248470;28;20541;-83
2022/05/26 03:20:01;;;;;;;9.80;6.28;;;12.40;99.90;;;;;;5248492;28;20017;-83
2022/05/26 03:22:31;;;;;;;10.43;6.22;;;12.30;99.90;;;;;;5248431;28;20500;-75
2022/05/26 03:25:03;;;;;;;9.82;5.80;;;12.30;99.90;;;;;;5248206;28;20028;-75
2022/05/26 03:27:33;;;;;;;8.02;5.28;;;12.50;99.90;;;;;;5248404;28;20025;-74
2022/05/26 03:30:05;;;;;;;10.60;6.05;;;12.50;99.90;;;;;;5247968;28;20434;-82
2022/05/26 03:32:36;;;;;;;12.57;7.18;;;12.50;99.90;;;;;;5246966;28;20064;-74
2022/05/26 03:40:51;;;;;;;12.40;7.27;;;12.70;99.90;;;;;;5248673;28;20955;-79
2022/05/26 03:43:54;;;;;;;12.55;7.88;;;12.90;99.90;;;;;;5249327;28;20255;-82
2022/05/26 03:46:26;;;;;;;20.27;8.80;;;12.90;99.90;;;;;;5252558;28;20029;-83
2022/05/26 03:48:57;;;;;;;15.02;8.45;;;12.70;99.90;;;;;;5252370;28;20005;-75
2022/05/26 03:51:28;;;;;;;18.15;10.63;;;13.00;99.90;;;;;;5246536;28;20079;-75
2022/05/26 03:53:58;;;;;;;19.42;11.43;;;13.00;99.90;;;;;;5249644;28;20052;-82
2022/05/26 03:56:29;;;;;;;17.98;11.10;;;13.20;99.90;;;;;;5252074;28;20086;-80
2022/05/26 03:59:00;;;;;;;19.73;11.38;;;12.90;99.90;;;;;;5252051;28;20107;-82
2022/05/26 04:01:31;;;;;;;19.98;12.77;;;13.30;99.90;;;;;;5252251;28;20448;-83
2022/05/26 04:04:02;;;;;;;20.60;12.43;;;13.60;99.90;;;;;;5251941;28;20049;-82
2022/05/26 04:06:33;;;;;;;21.05;12.45;;;13.30;99.90;;;;;;5252026;28;20021;-82
2022/05/26 04:09:04;;;;;;;22.77;14.35;;;13.40;99.90;;;;;;5252071;28;20534;-82
2022/05/26 04:11:35;;;;;;;33.03;14.43;;;13.30;99.90;;;;;;5251991;28;20024;-76
2022/05/26 04:14:06;;;;;;;21.50;12.45;;;13.70;99.90;;;;;;5251905;28;20028;-81
2022/05/26 04:16:37;;;;;;;21.25;12.18;;;14.10;99.90;;;;;;5251928;28;20539;-80
2022/05/26 04:19:10;;;;;;;24.38;12.57;;;14.50;99.90;;;;;;5251792;28;20111;-78
2022/05/26 04:22:15;;;;;;;20.63;13.10;;;14.70;99.90;;;;;;5251728;28;20119;-80
2022/05/26 04:24:31;;;;;;;21.65;13.23;;;14.60;99.90;;;;;;5251585;28;20024;-81
2022/05/26 04:27:03;;;;;;;20.40;13.45;;;14.60;99.90;;;;;;5252072;28;20538;-77
2022/05/26 04:29:35;;;;;;;21.58;12.98;;;14.70;99.90;;;;;;5251527;28;20052;-76
2022/05/26 04:32:06;;;;;;;25.42;13.55;;;14.70;99.90;;;;;;5251518;28;20043;-77
2022/05/26 04:34:38;;;;;;;19.73;12.23;;;14.90;99.90;;;;;;5251492;28;20436;-77
2022/05/26 04:37:08;;;;;;;24.88;13.52;;;15.00;99.90;;;;;;5251641;28;20103;-75
2022/05/26 04:39:39;;;;;;;29.80;14.40;;;15.40;99.90;;;;;;5251467;28;20411;-76
2022/05/26 04:42:11;;;;;;;28.95;13.35;;;15.30;99.90;;;;;;5251233;28;20024;-79
2022/05/26 04:44:44;;;;;;;23.80;11.60;;;15.50;99.90;;;;;;5251584;28;20021;-78
2022/05/26 04:47:15;;;;;;;19.83;11.98;;;15.80;99.90;;;;;;5269473;28;20086;-76
2022/05/26 04:49:46;;;;;;;24.50;12.07;;;16.60;99.90;;;;;;5272140;28;20028;-80
2022/05/26 04:52:20;;;;;;;22.30;12.70;;;16.60;99.90;;;;;;5272302;28;20024;-76
2022/05/26 04:54:54;;;;;;;23.75;13.25;;;16.60;99.90;;;;;;5271493;28;20483;-79
2022/05/26 04:57:25;;;;;;;23.80;11.73;;;16.50;99.90;;;;;;5272078;28;20063;-78
2022/05/26 04:59:56;;;;;;;21.50;10.50;;;16.60;99.90;;;;;;5272170;28;20437;-79
2022/05/26 05:02:27;;;;;;;23.80;10.02;;;16.70;99.90;;;;;;5253828;28;20036;-76
2022/05/26 05:04:58;;;;;;;18.58;9.57;;;17.40;99.90;;;;;;5272042;28;20103;-75
2022/05/26 05:07:29;;;;;;;19.38;9.50;;;17.40;99.90;;;;;;5271736;28;20020;-76
2022/05/26 05:09:59;;;;;;;17.80;9.30;;;17.50;99.90;;;;;;5271890;28;20027;-76
2022/05/26 05:12:30;;;;;;;18.33;9.13;;;17.80;99.90;;;;;;5270533;28;20349;-76
2022/05/26 05:15:04;;;;;;;14.18;7.25;;;18.40;99.90;;;;;;5271656;28;20031;-77
2022/05/26 05:17:35;;;;;;;13.68;6.65;;;18.90;99.90;;;;;;5271898;28;20035;-78
2022/05/26 05:20:06;;;;;;;14.27;5.80;;;19.00;99.90;;;;;;5271454;28;20069;-80
2022/05/26 05:22:49;;;;;;;12.10;6.70;;;19.20;99.90;;;;;;5271613;28;20032;-77
2022/05/26 05:25:22;;;;;;;12.40;6.30;;;19.60;99.90;;;;;;5271557;28;20032;-76
2022/05/26 05:28:03;;;;;;;13.35;6.70;;;19.70;99.90;;;;;;5271505;28;20504;-76
2022/05/26 05:30:46;;;;;;;11.93;6.20;;;19.90;99.90;;;;;;5271487;28;20131;-76
2022/05/26 05:33:23;;;;;;;13.48;6.95;;;20.10;99.90;;;;;;5271287;28;20024;-77
2022/05/26 05:36:07;;;;;;;11.88;6.13;;;20.20;99.90;;;;;;5270086;28;20115;-80
2022/05/26 05:38:39;;;;;;;10.07;5.57;;;20.30;99.90;;;;;;5271663;28;20021;-78
2022/05/26 05:41:10;;;;;;;16.92;5.38;;;20.00;99.90;;;;;;5269980;28;20036;-76
2022/05/26 05:43:42;;;;;;;10.38;4.85;;;20.40;99.90;;;;;;5270838;28;20020;-76
2022/05/26 05:46:14;;;;;;;9.75;4.53;;;20.70;99.90;;;;;;5271093;28;20380;-80
2022/05/26 05:48:46;;;;;;;12.98;5.25;;;20.70;99.90;;;;;;5271032;28;20054;-80
2022/05/26 05:51:17;;;;;;;10.95;4.63;;;20.80;99.90;;;;;;5271082;28;20035;-77
2022/05/26 05:53:48;;;;;;;11.18;5.70;;;21.10;99.90;;;;;;5270866;28;20452;-76
2022/05/26 05:56:19;;;;;;;12.45;5.45;;;21.40;99.90;;;;;;5270807;28;20119;-76
2022/05/26 05:58:51;;;;;;;9.77;4.60;;;21.40;99.90;;;;;;5270985;28;20031;-76
2022/05/26 06:01:22;;;;;;;6.63;4.28;;;21.60;99.90;;;;;;5270727;28;20040;-77
2022/05/26 06:03:53;;;;;;;11.23;5.18;;;21.60;99.90;;;;;;5270526;28;20016;-76
2022/05/26 06:06:24;;;;;;;12.20;5.45;;;21.70;99.90;;;;;;5270809;28;20099;-75
2022/05/26 06:08:54;;;;;;;13.57;5.22;;;21.60;99.90;;;;;;5270634;28;20024;-76
2022/05/26 06:11:25;;;;;;;12.18;5.05;;;21.70;99.90;;;;;;5270502;28;20078;-75
2022/05/26 06:13:56;;;;;;;11.73;4.93;;;21.70;99.90;;;;;;5270355;28;20062;-75
2022/05/26 06:16:29;;;;;;;11.93;5.47;;;21.90;99.90;;;;;;5270216;28;20040;-75
2022/05/26 06:19:00;;;;;;;9.70;5.13;;;22.10;99.90;;;;;;5270347;28;20384;-77
2022/05/26 06:21:32;;;;;;;9.88;4.93;;;22.20;99.90;;;;;;5270242;28;20545;-76
2022/05/26 06:24:04;;;;;;;11.00;4.78;;;22.40;99.90;;;;;;5270270;28;20031;-76
2022/05/26 06:26:34;;;;;;;9.27;4.07;;;22.60;99.90;;;;;;5269993;28;20032;-76
2022/05/26 06:37:35;;;;;;;;;;;23.50;99.90;;;;;;5270788;28;20040;-84
2022/05/26 06:40:07;;;;;;;10.00;4.22;;;23.70;99.90;;;;;;5270012;28;19904;-76
2022/05/26 06:42:38;;;;;;;9.27;4.47;;;23.80;99.90;;;;;;5269631;28;20027;-77
2022/05/26 06:45:09;;;;;;;9.30;4.32;;;24.00;99.90;;;;;;5269900;28;20027;-76
2022/05/26 06:47:40;;;;;;;11.48;4.10;;;24.10;99.90;;;;;;5269796;28;20111;-76
2022/05/26 06:50:11;;;;;;;8.65;3.95;;;24.10;99.90;;;;;;5269686;28;20032;-75
2022/05/26 06:52:42;;;;;;;13.90;4.43;;;24.40;99.90;;;;;;5269734;28;20024;-76
2022/05/26 06:55:13;;;;;;;8.05;4.38;;;24.30;99.90;;;;;;5269553;28;20028;-75
2022/05/26 06:57:44;;;;;;;11.20;4.72;;;24.80;99.90;;;;;;5269462;28;20031;-77
2022/05/26 07:00:15;;;;;;;8.90;4.20;;;24.70;99.90;;;;;;5269523;28;20350;-80
2022/05/26 07:02:46;;;;;;;12.43;4.97;;;24.60;99.90;;;;;;5269560;28;20016;-79
2022/05/26 07:05:18;;;;;;;13.38;4.70;;;24.80;99.90;;;;;;5269391;28;20428;-75
2022/05/26 07:07:48;;;;;;;8.77;4.40;;;25.10;99.90;;;;;;5269289;28;20059;-76
2022/05/26 07:10:19;;;;;;;10.93;4.78;;;24.70;99.90;;;;;;5269469;28;20044;-76
2022/05/26 07:12:50;;;;;;;11.90;4.30;;;24.70;99.90;;;;;;5269335;28;20028;-76
2022/05/26 07:15:21;;;;;;;12.48;4.68;;;24.80;99.90;;;;;;5269300;28;20115;-76
2022/05/26 07:17:52;;;;;;;9.95;4.63;;;25.10;99.90;;;;;;5268771;28;20028;-79
2022/05/26 07:20:22;;;;;;;10.50;4.97;;;25.40;99.90;;;;;;5269406;28;20379;-78
2022/05/26 07:22:53;;;;;;;8.85;4.95;;;25.40;99.90;;;;;;5269408;28;20118;-78
2022/05/26 07:25:24;;;;;;;15.23;4.90;;;25.60;99.90;;;;;;5269420;28;20016;-84
2022/05/26 07:27:55;;;;;;;7.95;4.65;;;25.80;99.90;;;;;;5269137;28;20027;-84
2022/05/26 07:30:26;;;;;;;7.03;4.22;;;26.10;99.90;;;;;;5269103;28;20473;-75
2022/05/26 07:32:56;;;;;;;10.30;5.00;;;26.10;99.90;;;;;;5269292;28;20035;-76
2022/05/26 07:35:27;;;;;;;11.77;4.95;;;25.90;99.90;;;;;;5269106;28;20035;-76
2022/05/26 07:43:49;;;;;;;9.68;4.50;;;26.20;99.90;;;;;;5269006;28;20031;-76
2022/05/26 07:46:23;;;;;;;6.90;5.00;;;26.20;99.90;;;;;;5269062;28;20035;-83
2022/05/26 07:48:54;;;;;;;10.68;4.50;;;26.20;99.90;;;;;;5269135;28;20012;-83
2022/05/26 07:51:25;;;;;;;7.22;4.30;;;26.00;99.90;;;;;;5269100;28;20107;-79
2022/05/26 07:53:55;;;;;;;7.05;4.60;;;25.90;99.90;;;;;;5268702;28;20103;-77
2022/05/26 07:56:36;;;;;;;10.27;4.90;;;26.50;99.90;;;;;;5268961;28;20032;-76
2022/05/26 07:59:07;;;;;;;14.10;5.45;;;26.30;99.90;;;;;;5268678;28;20025;-76
2022/05/26 08:01:38;;;;;;;11.23;4.63;;;26.40;99.90;;;;;;5268773;28;20539;-76
2022/05/26 08:04:09;;;;;;;14.75;4.70;;;26.60;99.90;;;;;;5268740;28;20108;-84
2022/05/26 08:06:40;;;;;;;13.50;5.15;;;27.00;99.90;;;;;;5268990;28;20021;-76
2022/05/26 08:09:11;;;;;;;16.13;6.63;;;26.70;99.90;;;;;;5268552;28;20030;-77
2022/05/26 08:11:41;;;;;;;20.70;7.32;;;26.70;99.90;;;;;;5268774;28;20384;-76
2022/05/26 08:14:13;;;;;;;16.23;6.90;;;26.50;99.90;;;;;;5268708;28;20107;-75
2022/05/26 08:16:44;;;;;;;21.23;7.05;;;27.00;99.90;;;;;;5268652;28;20069;-76
2022/05/26 08:19:14;;;;;;;21.70;7.70;;;27.20;99.90;;;;;;5268791;28;20464;-76
2022/05/26 08:21:45;;;;;;;16.67;6.35;;;27.10;99.90;;;;;;5268724;28;20031;-77
2022/05/26 08:24:18;;;;;;;15.18;6.82;;;27.70;99.90;;;;;;5268207;28;20073;-88
2022/05/26 08:26:49;;;;;;;11.18;5.90;;;27.60;99.90;;;;;;5268661;28;20012;-76
2022/05/26 08:29:20;;;;;;;19.25;6.40;;;27.80;99.90;;;;;;5268458;28;20093;-76
2022/05/26 08:31:52;;;;;;;15.60;5.07;;;28.10;99.90;;;;;;5272296;28;20083;-76
2022/05/26 08:34:23;;;;;;;17.92;5.13;;;27.60;99.90;;;;;;5272249;28;20032;-78
2022/05/26 08:36:54;;;;;;;13.23;4.53;;;27.40;99.90;;;;;;5272203;28;20036;-80
2022/05/26 08:39:24;;;;;;;9.32;4.32;;;27.90;99.90;;;;;;5272448;28;20027;-76
2022/05/26 08:41:55;;;;;;;9.95;4.05;;;27.50;99.90;;;;;;5272146;28;20024;-76
2022/05/26 08:44:34;;;;;;;9.75;4.35;;;27.90;99.90;;;;;;5272235;28;20020;-81
2022/05/26 08:47:16;;;;;;;7.35;4.13;;;28.50;99.90;;;;;;5272286;28;20063;-81
2022/05/26 08:49:56;;;;;;;8.63;3.83;;;28.80;99.90;;;;;;5272315;28;20089;-77
2022/05/26 08:52:44;;;;;;;6.72;3.85;;;27.80;99.90;;;;;;5272158;28;20028;-77
2022/05/26 08:55:29;;;;;;;7.17;4.03;;;28.40;99.90;;;;;;5272103;28;20541;-82
2022/05/26 08:58:15;;;;;;;13.15;4.22;;;28.10;99.90;;;;;;5271794;28;20274;-76
2022/05/26 09:00:49;;;;;;;8.75;3.78;;;28.20;99.90;;;;;;5271959;28;20111;-77
2022/05/26 09:03:33;;;;;;;7.93;3.40;;;28.40;99.90;;;;;;5271833;28;20024;-78
2022/05/26 09:06:19;;;;;;;7.10;3.45;;;28.80;99.90;;;;;;5271731;28;20406;-78
2022/05/26 09:14:26;;;;;;;7.70;3.58;;;28.60;99.90;;;;;;5271817;28;20082;-77
2022/05/26 09:17:06;;;;;;;7.03;3.80;;;28.10;99.90;;;;;;5271814;28;20533;-77
2022/05/26 09:19:43;;;;;;;10.18;3.63;;;27.80;99.90;;;;;;5271951;28;20020;-77
2022/05/26 09:22:29;;;;;;;13.20;3.85;;;27.90;99.90;;;;;;5271632;28;20020;-87
2022/05/26 09:25:00;;;;;;;10.00;3.88;;;28.20;99.90;;;;;;5271484;28;20032;-86
2022/05/26 09:27:34;;;;;;;5.97;3.40;;;28.90;99.90;;;;;;5271440;28;20024;-77
2022/05/26 09:30:29;;;;;;;9.15;4.10;;;29.70;99.90;;;;;;5271007;28;20487;-83
2022/05/26 09:33:00;;;;;;;10.13;4.10;;;29.60;99.90;;;;;;5271327;28;20035;-77
2022/05/26 09:35:34;;;;;;;8.77;3.88;;;29.80;99.90;;;;;;5271551;28;20035;-78
2022/05/26 09:38:06;;;;;;;8.05;4.13;;;29.40;99.90;;;;;;5271314;28;20417;-77
2022/05/26 09:40:40;;;;;;;7.78;4.05;;;29.80;99.90;;;;;;5270972;28;20498;-78
2022/05/26 09:43:17;;;;;;;6.85;4.85;;;29.80;99.90;;;;;;5271057;28;20107;-86
2022/05/26 09:45:53;;;;;;;9.80;4.18;;;30.20;99.90;;;;;;5271140;28;20012;-78
2022/05/26 09:48:24;;;;;;;8.25;4.65;;;30.10;99.90;;;;;;5271117;28;20027;-87
2022/05/26 09:51:22;;;;;;;11.90;4.70;;;29.30;99.90;;;;;;5270703;28;20111;-86
2022/05/26 09:53:55;;;;;;;8.63;4.15;;;29.60;99.90;;;;;;5270464;28;20028;-77
2022/05/26 09:56:41;;;;;;;5.65;3.78;;;29.40;99.90;;;;;;5270029;28;20043;-78
2022/05/26 09:59:31;;;;;;;17.67;4.60;;;30.00;99.90;;;;;;5270083;28;20020;-78
2022/05/26 10:02:11;;;;;;;6.88;4.28;;;29.30;99.90;;;;;;5270345;28;20047;-77
2022/05/26 10:05:04;;;;;;;9.98;4.53;;;29.10;99.90;;;;;;5270340;28;20021;-85
2022/05/26 10:07:47;;;;;;;9.90;4.53;;;29.70;99.90;;;;;;5270298;28;20051;-78
2022/05/26 10:10:23;;;;;;;14.25;4.45;;;29.50;99.90;;;;;;5270344;28;20035;-82
2022/05/26 10:13:28;;;;;;;9.73;4.07;;;29.10;99.90;;;;;;5270158;28;20115;-80
2022/05/26 10:16:09;;;;;;;12.27;4.25;;;29.80;99.90;;;;;;5269960;28;20410;-84
2022/05/26 10:19:15;;;;;;;10.32;6.13;;;29.90;99.90;;;;;;5270241;28;20073;-86
2022/05/26 10:22:08;;;;;;;11.50;5.30;;;28.60;99.90;;;;;;5270182;28;20107;-78
2022/05/26 10:25:02;;;;;;;11.35;5.47;;;29.90;99.90;;;;;;5269953;28;20044;-77
2022/05/26 10:27:52;;;;;;;7.90;4.03;;;30.80;99.90;;;;;;5264138;28;20380;-77
2022/05/26 10:30:25;;;;;;;11.32;3.75;;;31.00;99.90;;;;;;5262019;28;20051;-76
2022/05/26 10:33:11;;;;;;;7.03;4.07;;;29.90;99.90;;;;;;5269860;28;20024;-79
2022/05/26 10:35:59;;;;;;;6.18;4.30;;;29.80;99.90;;;;;;5269691;28;20046;-77
2022/05/26 10:38:48;;;;;;;8.80;4.60;;;30.60;99.90;;;;;;5269772;28;20028;-83
2022/05/26 10:41:40;;;;;;;11.23;4.82;;;31.50;99.90;;;;;;5269704;28;20055;-77
2022/05/26 10:44:14;;;;;;;8.10;4.13;;;31.10;99.90;;;;;;5269548;28;20030;-85
2022/05/26 10:46:53;;;;;;;6.63;4.03;;;29.60;99.90;;;;;;5269686;28;20028;-77
2022/05/26 10:49:44;;;;;;;6.10;3.80;;;30.90;99.90;;;;;;5269594;28;20048;-77
2022/05/26 10:52:21;;;;;;;7.20;4.32;;;30.70;99.90;;;;;;5261761;28;20036;-84
2022/05/26 10:55:07;;;;;;;8.98;4.32;;;30.30;99.90;;;;;;5262532;28;20388;-77
2022/05/26 10:57:55;;;;;;;6.80;4.15;;;30.30;99.90;;;;;;5269797;28;20012;-77
2022/05/26 11:00:31;;;;;;;7.27;3.93;;;30.60;99.90;;;;;;5256550;28;20473;-85
2022/05/26 11:03:14;;;;;;;9.27;4.47;;;30.10;99.90;;;;;;5248734;28;20263;-78
2022/05/26 11:05:48;;;;;;;8.05;4.68;;;30.10;99.90;;;;;;5248801;28;20032;-77
2022/05/26 11:08:44;;;;;;;11.23;4.03;;;30.00;99.90;;;;;;5268007;28;20104;-77
2022/05/26 11:11:41;;;;;;;7.32;4.57;;;30.60;99.90;;;;;;5269958;28;20072;-81
2022/05/26 11:17:40;;;;;;;7.78;4.13;;;31.00;99.90;;;;;;5269799;28;20101;-83
2022/05/26 11:20:23;;;;;;;11.88;4.57;;;31.80;99.90;;;;;;5261903;28;20067;-81
2022/05/26 11:23:03;;;;;;;6.80;4.30;;;31.00;99.90;;;;;;5269424;28;20108;-77
2022/05/26 11:26:20;;;;;;;13.38;4.65;;;31.40;99.90;;;;;;5269686;28;20367;-77
2022/05/26 11:28:56;;;;;;;8.13;4.13;;;31.90;99.90;;;;;;5268867;28;20036;-80
2022/05/26 11:37:37;;;;;;;9.32;5.00;;;32.00;99.90;;;;;;5269438;28;20035;-81
2022/05/26 11:40:11;;;;;;;9.90;5.07;;;31.50;99.90;;;;;;5267965;28;20028;-79
2022/05/26 11:42:54;;;;;;;8.90;4.18;;;32.10;99.90;;;;;;5268927;28;20479;-77
2022/05/26 11:45:32;;;;;;;7.88;4.20;;;32.00;99.90;;;;;;5269168;28;20020;-83
2022/05/26 11:48:06;;;;;;;8.33;3.67;;;31.50;99.90;;;;;;5269200;28;20023;-81
2022/05/26 11:50:43;;;;;;;8.85;3.78;;;31.80;99.90;;;;;;5269019;28;20277;-81
2022/05/26 11:53:36;;;;;;;8.18;3.78;;;31.40;99.90;;;;;;5268841;28;20380;-82
2022/05/26 11:56:39;;;;;;;8.50;4.00;;;31.70;99.90;;;;;;5284579;28;20521;-81
2022/05/26 11:59:34;;;;;;;7.70;3.95;;;31.50;99.90;;;;;;5260471;28;20036;-76
2022/05/26 12:02:07;;;;;;;10.10;3.97;;;31.40;99.90;;;;;;5269080;28;20500;-77
2022/05/26 12:04:41;;;;;;;7.03;3.83;;;30.90;99.90;;;;;;5270578;28;20028;-81
2022/05/26 12:07:17;;;;;;;9.07;4.00;;;31.10;99.90;;;;;;5273120;28;20367;-78
2022/05/26 12:09:59;;;;;;;10.80;3.97;;;30.90;99.90;;;;;;5273234;28;20406;-77
2022/05/26 12:12:34;;;;;;;9.77;4.15;;;31.00;99.90;;;;;;5273006;28;20028;-82
2022/05/26 12:15:21;;;;;;;11.05;4.05;;;31.40;99.90;;;;;;5272746;28;20023;-81
2022/05/26 12:17:55;;;;;;;7.88;4.40;;;31.30;99.90;;;;;;5272827;28;20387;-82
2022/05/26 12:20:32;;;;;;;7.00;4.50;;;31.60;99.90;;;;;;5272908;28;20472;-83
2022/05/26 12:23:03;;;;;;;13.68;4.32;;;31.40;99.90;;;;;;5272722;28;20023;-83
2022/05/26 12:25:41;;;;;;;7.30;4.40;;;31.40;99.90;;;;;;5272617;28;20020;-80
2022/05/26 12:28:31;;;;;;;6.00;4.00;;;31.20;99.90;;;;;;5271427;28;20475;-82
2022/05/26 12:31:07;;;;;;;7.05;3.78;;;31.00;99.90;;;;;;5265842;28;20079;-78
2022/05/26 12:33:49;;;;;;;9.20;3.70;;;30.60;99.90;;;;;;5272035;28;20039;-77
2022/05/26 12:36:40;;;;;;;10.32;4.20;;;31.10;99.90;;;;;;5272058;28;20115;-79
2022/05/26 12:39:30;;;;;;;7.15;4.10;;;30.90;99.90;;;;;;5271923;28;20027;-82
2022/05/26 12:42:10;;;;;;;6.85;3.60;;;30.30;99.90;;;;;;5272002;28;20028;-84
2022/05/26 12:44:59;;;;;;;5.53;3.55;;;29.90;99.90;;;;;;5271714;28;20043;-77
2022/05/26 12:48:00;;;;;;;5.85;3.78;;;29.70;99.90;;;;;;5271735;28;20030;-81
2022/05/26 12:50:39;;;;;;;9.38;3.38;;;29.60;99.90;;;;;;5271859;28;20035;-77
2022/05/26 12:53:20;;;;;;;;;;;30.00;99.90;;;;;;5272501;28;20111;-81
2022/05/26 12:56:24;;;;;;;7.72;3.90;;;29.30;99.90;;;;;;5272001;28;19915;-83
2022/05/26 12:58:59;;;;;;;8.93;4.57;;;29.00;99.90;;;;;;5263155;28;20430;-81
2022/05/26 13:01:30;;;;;;;6.22;3.88;;;29.30;99.90;;;;;;5271926;28;20036;-81
2022/05/26 13:04:18;;;;;;;8.00;4.22;;;29.50;99.90;;;;;;5271883;28;20476;-82
2022/05/26 13:06:52;;;;;;;8.63;3.95;;;28.90;99.90;;;;;;5271919;28;20035;-82
2022/05/26 13:09:26;;;;;;;12.10;4.13;;;28.50;99.90;;;;;;5272010;28;20089;-83
2022/05/26 13:12:00;;;;;;;8.95;4.07;;;29.20;99.90;;;;;;5271938;28;20476;-82
2022/05/26 13:14:58;;;;;;;8.25;3.85;;;29.30;99.90;;;;;;5271851;28;20031;-82
2022/05/26 13:17:29;;;;;;;6.40;4.07;;;29.00;99.90;;;;;;5270626;28;20544;-78
2022/05/26 13:20:03;;;;;;;7.18;4.00;;;28.50;99.90;;;;;;5270343;28;20028;-78
2022/05/26 13:22:36;;;;;;;7.68;3.60;;;29.10;99.90;;;;;;5271847;28;20401;-81
2022/05/26 13:25:13;;;;;;;7.25;3.50;;;28.50;99.90;;;;;;5271602;28;20086;-78
2022/05/26 13:27:50;;;;;;;6.30;3.60;;;28.00;99.90;;;;;;5271583;28;20024;-77
2022/05/26 13:33:22;;;;;;;11.07;4.20;;;27.90;99.90;;;;;;5271816;28;20081;-78
2022/05/26 13:35:58;;;;;;;10.40;3.80;;;26.90;99.90;;;;;;5271344;28;20028;-83
2022/05/26 13:38:46;;;;;;;7.38;3.95;;;27.30;99.90;;;;;;5271273;28;20301;-77
2022/05/26 13:41:28;;;;;;;6.65;4.00;;;27.10;99.90;;;;;;5271093;28;20059;-77
2022/05/26 13:44:05;;;;;;;7.22;4.15;;;27.70;99.90;;;;;;5271090;28;20612;-80
2022/05/26 13:46:45;;;;;;;7.40;4.30;;;27.50;99.90;;;;;;5271297;28;20047;-80
2022/05/26 13:49:39;;;;;;;6.13;4.72;;;28.30;99.90;;;;;;5271288;28;20077;-83
2022/05/26 13:52:16;;;;;;;8.38;4.85;;;27.30;99.90;;;;;;5271538;28;20032;-82
2022/05/26 13:55:03;;;;;;;9.32;4.60;;;27.90;99.90;;;;;;5270952;28;20468;-82
2022/05/26 13:57:42;;;;;;;6.47;4.13;;;27.90;99.90;;;;;;5270956;28;20059;-78
2022/05/26 14:00:24;;;;;;;4.57;4.15;;;27.70;99.90;;;;;;5271027;28;20036;-82
2022/05/26 14:03:01;;;;;;;8.80;4.50;;;28.10;99.90;;;;;;5270466;28;20157;-80
2022/05/26 14:05:34;;;;;;;6.28;4.45;;;27.70;99.90;;;;;;5270926;28;20471;-80
2022/05/26 14:08:08;;;;;;;6.72;4.10;;;27.90;99.90;;;;;;5270763;28;20103;-78
2022/05/26 14:10:47;;;;;;;13.07;5.32;;;27.90;99.90;;;;;;5270649;28;20028;-81
2022/05/26 14:13:18;;;;;;;5.85;4.72;;;28.00;99.90;;;;;;5270567;28;20032;-78
2022/05/26 14:15:51;;;;;;;7.47;4.85;;;28.00;99.90;;;;;;5270245;28;20028;-80
2022/05/26 14:18:43;;;;;;;8.48;4.90;;;27.30;99.90;;;;;;5269942;28;20103;-81